createdAt,value
2022-10-29T00:00:58.619Z,9.33
2022-10-29T00:03:26.263Z,10.47
2022-10-29T00:06:02.236Z,10.10
2022-10-29T00:08:31.229Z,10.70
2022-10-29T00:11:09.789Z,10.27
2022-10-29T00:13:37.449Z,10.30
2022-10-29T00:16:06.515Z,10.90
2022-10-29T00:18:33.350Z,10.00
2022-10-29T00:21:04.511Z,10.77
2022-10-29T00:23:31.360Z,10.50
2022-10-29T00:25:59.214Z,10.60
2022-10-29T00:28:26.066Z,9.63
2022-10-29T00:30:53.035Z,10.00
2022-10-29T00:35:58.359Z,9.60
2022-10-29T00:38:26.293Z,9.67
2022-10-29T00:40:54.186Z,10.17
2022-10-29T00:43:23.174Z,11.10
2022-10-29T00:46:09.373Z,10.50
2022-10-29T00:48:48.708Z,10.77
2022-10-29T00:51:16.590Z,9.93
2022-10-29T00:54:14.076Z,10.07
2022-10-29T00:56:46.726Z,10.30
2022-10-29T00:59:16.544Z,10.03
2022-10-29T01:01:46.451Z,9.80
2022-10-29T01:04:13.670Z,11.10
2022-10-29T01:06:42.410Z,10.47
2022-10-29T01:09:09.185Z,10.27
2022-10-29T01:11:35.853Z,9.90
2022-10-29T01:14:40.528Z,9.77
2022-10-29T01:17:22.535Z,10.87
2022-10-29T01:20:04.107Z,11.10
2022-10-29T01:22:39.797Z,10.17
2022-10-29T01:25:21.507Z,10.43
2022-10-29T01:28:03.282Z,10.50
2022-10-29T01:30:48.361Z,11.90
2022-10-29T01:33:23.542Z,10.17
2022-10-29T01:36:05.402Z,11.37
2022-10-29T01:38:40.973Z,11.43
2022-10-29T01:41:19.833Z,10.07
2022-10-29T01:43:53.985Z,11.27
2022-10-29T01:46:26.078Z,11.23
2022-10-29T01:48:57.893Z,11.17
2022-10-29T01:51:29.289Z,10.67
2022-10-29T01:54:01.608Z,10.87
2022-10-29T01:56:28.383Z,11.53
2022-10-29T01:58:59.447Z,10.90
2022-10-29T02:01:44.676Z,11.40
2022-10-29T02:04:35.439Z,11.03
2022-10-29T02:07:25.397Z,11.10
2022-10-29T02:10:21.081Z,10.97
2022-10-29T02:12:51.288Z,10.73
2022-10-29T02:15:36.091Z,9.57
2022-10-29T02:18:05.486Z,9.60
2022-10-29T02:20:32.478Z,9.90
2022-10-29T02:22:59.360Z,9.70
2022-10-29T02:25:26.373Z,9.10
2022-10-29T02:27:53.396Z,9.53
2022-10-29T02:30:20.390Z,9.83
2022-10-29T02:32:47.213Z,9.20
2022-10-29T02:35:14.026Z,9.47
2022-10-29T02:37:42.261Z,10.30
2022-10-29T02:40:09.521Z,9.87
2022-10-29T02:42:36.357Z,10.60
2022-10-29T02:45:03.332Z,9.67
2022-10-29T02:47:30.076Z,9.30
2022-10-29T02:49:56.852Z,8.33
2022-10-29T02:52:23.681Z,9.60
2022-10-29T02:54:50.517Z,9.90
2022-10-29T02:57:19.991Z,10.20
2022-10-29T02:59:46.715Z,10.07
2022-10-29T03:02:13.509Z,10.60
2022-10-29T03:04:41.533Z,10.63
2022-10-29T03:07:08.284Z,10.77
2022-10-29T03:09:35.026Z,12.20
2022-10-29T03:12:01.975Z,9.90
2022-10-29T03:14:28.713Z,10.67
2022-10-29T03:16:55.468Z,11.10
2022-10-29T03:19:22.636Z,11.20
2022-10-29T03:21:49.380Z,11.13
2022-10-29T03:24:16.175Z,11.57
2022-10-29T03:26:42.881Z,10.57
2022-10-29T03:29:09.617Z,10.40
2022-10-29T03:31:36.338Z,10.17
2022-10-29T03:34:03.153Z,12.63
2022-10-29T03:36:29.955Z,12.27
2022-10-29T03:38:56.660Z,12.40
2022-10-29T03:41:23.404Z,14.50
2022-10-29T03:43:50.404Z,14.60
2022-10-29T03:46:17.628Z,15.30
2022-10-29T03:48:44.736Z,14.77
2022-10-29T03:51:11.870Z,15.63
2022-10-29T03:53:39.032Z,15.47
2022-10-29T03:56:06.827Z,13.77
2022-10-29T03:58:33.954Z,13.10
2022-10-29T04:01:03.041Z,13.03
2022-10-29T04:03:31.430Z,13.40
2022-10-29T04:05:59.950Z,11.67
2022-10-29T04:08:26.821Z,11.30
2022-10-29T04:10:53.993Z,10.97
2022-10-29T04:13:21.080Z,11.67
2022-10-29T04:15:47.870Z,12.47
2022-10-29T04:18:15.008Z,12.10
2022-10-29T04:20:59.738Z,11.53
2022-10-29T04:29:03.373Z,11.40
2022-10-29T04:31:30.459Z,12.27
2022-10-29T04:33:57.687Z,11.40
2022-10-29T04:36:24.488Z,11.50
2022-10-29T04:38:51.625Z,11.20
2022-10-29T04:41:18.758Z,11.27
2022-10-29T04:43:45.538Z,10.33
2022-10-29T04:46:12.719Z,12.43
2022-10-29T04:48:39.534Z,10.33
2022-10-29T04:51:06.569Z,11.30
2022-10-29T04:53:33.668Z,12.13
2022-10-29T04:56:02.005Z,9.70
2022-10-29T04:58:29.211Z,10.77
2022-10-29T05:01:02.032Z,11.30
2022-10-29T05:03:29.292Z,11.60
2022-10-29T05:05:56.415Z,10.50
2022-10-29T05:08:23.582Z,10.13
2022-10-29T05:10:50.748Z,10.30
2022-10-29T05:13:17.868Z,12.10
2022-10-29T05:15:53.346Z,10.30
2022-10-29T05:18:20.774Z,12.53
2022-10-29T05:20:47.934Z,12.93
2022-10-29T05:23:15.637Z,13.00
2022-10-29T05:25:42.896Z,12.67
2022-10-29T05:28:14.822Z,11.20
2022-10-29T05:30:42.090Z,11.87
2022-10-29T05:33:10.317Z,11.73
2022-10-29T05:35:37.681Z,12.13
2022-10-29T05:38:05.540Z,13.57
2022-10-29T05:40:32.940Z,12.67
2022-10-29T05:43:00.550Z,12.00
2022-10-29T05:45:27.790Z,12.20
2022-10-29T05:47:59.615Z,11.60
2022-10-29T05:50:26.910Z,12.57
2022-10-29T05:53:05.679Z,13.10
2022-10-29T05:55:34.604Z,12.37
2022-10-29T05:58:04.097Z,12.33
2022-10-29T06:00:33.472Z,12.50
2022-10-29T06:03:00.513Z,12.67
2022-10-29T06:05:28.375Z,11.80
2022-10-29T06:07:56.243Z,12.53
2022-10-29T06:10:24.816Z,11.87
2022-10-29T06:12:51.949Z,13.40
2022-10-29T06:15:19.244Z,11.40
2022-10-29T06:17:47.481Z,12.00
2022-10-29T06:20:16.109Z,14.13
2022-10-29T06:22:43.248Z,13.67
2022-10-29T06:25:10.499Z,13.20
2022-10-29T06:27:37.406Z,11.73
2022-10-29T06:30:05.801Z,12.70
2022-10-29T06:32:33.012Z,11.53
2022-10-29T06:34:59.747Z,12.87
2022-10-29T06:37:26.562Z,14.00
2022-10-29T06:39:53.705Z,12.13
2022-10-29T06:42:20.822Z,13.10
2022-10-29T06:44:47.929Z,13.00
2022-10-29T06:47:15.037Z,14.00
2022-10-29T06:49:42.145Z,13.40
2022-10-29T06:52:09.264Z,15.10
2022-10-29T06:54:36.431Z,16.00
2022-10-29T06:57:03.599Z,16.53
2022-10-29T06:59:30.804Z,17.20
2022-10-29T07:01:57.982Z,16.13
2022-10-29T07:04:25.229Z,15.93
2022-10-29T07:06:52.401Z,16.50
2022-10-29T07:09:19.574Z,15.80
2022-10-29T07:11:46.774Z,16.43
2022-10-29T07:14:13.963Z,17.57
2022-10-29T07:16:41.185Z,16.33
2022-10-29T07:19:08.621Z,17.10
2022-10-29T07:21:35.782Z,17.43
2022-10-29T07:24:03.018Z,17.47
2022-10-29T07:26:30.204Z,18.30
2022-10-29T07:28:57.812Z,18.10
2022-10-29T07:31:24.934Z,17.20
2022-10-29T07:33:51.872Z,18.57
2022-10-29T07:36:19.007Z,16.90
2022-10-29T07:38:46.200Z,16.33
2022-10-29T07:41:13.333Z,15.97
2022-10-29T07:43:40.471Z,16.30
2022-10-29T07:46:07.448Z,16.87
2022-10-29T07:48:34.605Z,17.33
2022-10-29T07:51:02.553Z,15.93
2022-10-29T07:53:31.453Z,17.20
2022-10-29T07:55:58.867Z,15.33
2022-10-29T07:58:26.305Z,15.77
2022-10-29T08:00:53.961Z,16.53
2022-10-29T08:03:21.168Z,17.07
2022-10-29T08:05:55.305Z,16.50
2022-10-29T08:08:23.867Z,16.73
2022-10-29T08:10:51.015Z,16.20
2022-10-29T08:13:18.184Z,16.53
2022-10-29T08:15:47.082Z,14.27
2022-10-29T08:18:18.391Z,14.67
2022-10-29T08:20:45.883Z,13.60
2022-10-29T08:23:13.538Z,13.20
2022-10-29T08:25:42.637Z,15.00
2022-10-29T08:28:14.117Z,14.07
2022-10-29T08:30:41.612Z,13.90
2022-10-29T08:33:09.804Z,13.40
2022-10-29T08:35:36.659Z,13.10
2022-10-29T08:38:03.454Z,13.60
2022-10-29T08:40:57.246Z,13.00
2022-10-29T08:43:48.270Z,14.33
2022-10-29T08:46:38.162Z,13.73
2022-10-29T08:49:11.485Z,14.00
2022-10-29T08:51:42.342Z,13.23
2022-10-29T08:54:30.375Z,13.30
2022-10-29T08:57:02.539Z,13.53
2022-10-29T08:59:35.955Z,13.83
2022-10-29T09:02:03.115Z,14.97
2022-10-29T09:04:38.325Z,14.73
2022-10-29T09:07:05.454Z,14.00
2022-10-29T09:09:38.255Z,13.67
2022-10-29T09:12:13.244Z,14.07
2022-10-29T09:14:48.402Z,15.10
2022-10-29T09:17:43.952Z,14.20
2022-10-29T09:20:25.937Z,14.00
2022-10-29T09:23:11.255Z,14.83
2022-10-29T09:25:58.698Z,14.70
2022-10-29T09:28:31.279Z,14.07
2022-10-29T09:31:34.499Z,13.77
2022-10-29T09:34:11.238Z,15.50
2022-10-29T09:36:38.123Z,14.57
2022-10-29T09:39:13.672Z,13.43
2022-10-29T09:41:41.093Z,14.97
2022-10-29T09:44:25.099Z,16.63
2022-10-29T09:47:09.371Z,14.90
2022-10-29T09:50:05.270Z,15.20
2022-10-29T09:52:39.265Z,14.67
2022-10-29T09:55:10.703Z,15.00
2022-10-29T09:57:37.912Z,14.90
2022-10-29T10:00:13.705Z,13.77
2022-10-29T10:02:54.990Z,13.50
2022-10-29T10:05:33.072Z,13.33
2022-10-29T10:08:20.105Z,15.30
2022-10-29T10:10:54.470Z,14.73
2022-10-29T10:13:31.414Z,14.10
2022-10-29T10:16:00.441Z,14.33
2022-10-29T10:18:33.086Z,13.50
2022-10-29T10:21:10.426Z,13.37
2022-10-29T10:23:46.685Z,13.83
2022-10-29T10:26:43.124Z,14.23
2022-10-29T10:29:12.757Z,14.63
2022-10-29T10:31:41.026Z,14.60
2022-10-29T10:34:33.895Z,14.17
2022-10-29T10:37:09.632Z,13.03
2022-10-29T10:39:42.932Z,11.97
2022-10-29T10:42:18.662Z,12.23
2022-10-29T10:44:50.100Z,14.13
2022-10-29T10:47:19.112Z,14.00
2022-10-29T10:49:46.202Z,14.43
2022-10-29T10:52:28.587Z,15.00
2022-10-29T10:55:35.174Z,13.60
2022-10-29T10:58:08.354Z,11.80
2022-10-29T11:00:41.087Z,11.30
2022-10-29T11:03:17.723Z,12.10
2022-10-29T11:06:06.708Z,12.60
2022-10-29T11:08:39.453Z,12.03
2022-10-29T11:11:17.722Z,12.00
2022-10-29T11:13:44.938Z,11.33
2022-10-29T11:16:24.888Z,12.00
2022-10-29T11:19:04.160Z,10.60
2022-10-29T11:21:59.150Z,11.30
2022-10-29T11:24:47.426Z,10.52
2022-10-29T11:27:40.691Z,9.93
2022-10-29T11:30:12.149Z,10.57
2022-10-29T11:32:57.695Z,10.40
2022-10-29T11:35:33.303Z,10.93
2022-10-29T11:38:11.973Z,10.63
2022-10-29T11:40:38.712Z,10.10
2022-10-29T11:43:14.538Z,9.48
2022-10-29T11:45:59.712Z,9.07
2022-10-29T11:48:53.640Z,9.40
2022-10-29T11:51:41.225Z,7.70
2022-10-29T11:54:40.752Z,8.03
2022-10-29T11:57:28.623Z,7.50
2022-10-29T12:00:07.292Z,6.32
2022-10-29T12:02:58.777Z,7.20
2022-10-29T12:05:45.828Z,6.97
2022-10-29T12:08:27.807Z,6.90
2022-10-29T12:11:02.229Z,7.23
2022-10-29T12:13:49.353Z,6.10
2022-10-29T12:16:28.604Z,6.87
2022-10-29T12:19:12.782Z,6.63
2022-10-29T12:21:53.460Z,6.63
2022-10-29T12:24:26.111Z,5.40
2022-10-29T12:27:02.006Z,6.67
2022-10-29T12:29:31.859Z,6.83
2022-10-29T12:32:10.526Z,9.30
2022-10-29T12:34:47.194Z,6.67
2022-10-29T12:37:24.455Z,6.50
2022-10-29T12:39:58.690Z,6.90
2022-10-29T12:42:27.346Z,6.77
2022-10-29T12:45:27.787Z,5.80
2022-10-29T12:48:15.250Z,6.87
2022-10-29T12:50:48.097Z,6.60
2022-10-29T12:53:17.524Z,6.70
2022-10-29T12:55:46.747Z,7.37
2022-10-29T12:58:53.083Z,6.83
2022-10-29T13:01:38.220Z,6.73
2022-10-29T13:05:01.716Z,6.70
2022-10-29T13:07:28.710Z,7.03
2022-10-29T13:10:28.680Z,7.20
2022-10-29T13:12:55.438Z,5.93
2022-10-29T13:15:24.441Z,6.73
2022-10-29T13:17:54.577Z,6.60
2022-10-29T13:20:42.843Z,6.33
2022-10-29T13:23:24.894Z,6.90
2022-10-29T13:25:58.790Z,7.27
2022-10-29T13:28:25.483Z,6.70
2022-10-29T13:30:53.498Z,6.93
2022-10-29T13:33:29.161Z,7.43
2022-10-29T13:36:01.538Z,7.90
2022-10-29T13:38:57.694Z,6.67
2022-10-29T13:41:44.530Z,7.23
2022-10-29T13:44:20.613Z,7.40
2022-10-29T13:46:50.409Z,7.87
2022-10-29T13:49:33.927Z,6.70
2022-10-29T13:52:21.892Z,7.10
2022-10-29T13:54:54.099Z,6.80
2022-10-29T13:57:43.598Z,7.37
2022-10-29T14:00:13.328Z,6.67
2022-10-29T14:02:42.843Z,7.13
2022-10-29T14:05:09.652Z,6.67
2022-10-29T14:08:03.714Z,7.17
2022-10-29T14:10:50.283Z,7.40
2022-10-29T14:13:23.622Z,7.27
2022-10-29T14:16:06.900Z,7.13
2022-10-29T14:18:44.712Z,6.50
2022-10-29T14:21:16.075Z,7.80
2022-10-29T14:23:56.591Z,6.23
2022-10-29T14:26:24.756Z,6.97
2022-10-29T14:28:52.527Z,6.10
2022-10-29T14:31:26.143Z,6.73
2022-10-29T14:33:57.716Z,6.13
2022-10-29T14:36:33.874Z,6.77
2022-10-29T14:39:23.650Z,6.03
2022-10-29T14:41:51.150Z,6.63
2022-10-29T14:44:30.936Z,6.47
2022-10-29T14:47:09.355Z,7.30
2022-10-29T14:49:44.225Z,7.10
2022-10-29T14:52:32.359Z,6.60
2022-10-29T14:55:16.956Z,6.77
2022-10-29T14:57:48.502Z,6.20
2022-10-29T15:00:30.432Z,6.60
2022-10-29T15:02:58.175Z,6.77
2022-10-29T15:05:34.950Z,6.57
2022-10-29T15:08:11.050Z,7.40
2022-10-29T15:11:04.048Z,7.23
2022-10-29T15:13:34.198Z,6.90
2022-10-29T15:16:03.170Z,8.17
2022-10-29T15:18:32.073Z,7.70
2022-10-29T15:20:59.046Z,7.43
2022-10-29T15:23:36.870Z,7.90
2022-10-29T15:26:30.544Z,6.30
2022-10-29T15:28:57.904Z,8.73
2022-10-29T15:31:46.660Z,6.83
2022-10-29T15:34:28.483Z,7.83
2022-10-29T15:37:00.135Z,8.23
2022-10-29T15:39:58.090Z,26.17
2022-10-29T15:42:45.303Z,8.50
2022-10-29T15:45:22.902Z,8.83
2022-10-29T15:47:58.317Z,8.50
2022-10-29T15:50:40.577Z,7.70
2022-10-29T15:53:13.893Z,7.33
2022-10-29T15:55:40.873Z,7.10
2022-10-29T15:58:15.855Z,7.00
2022-10-29T16:00:43.242Z,7.43
2022-10-29T16:03:20.155Z,7.60
2022-10-29T16:05:53.936Z,7.60
2022-10-29T16:08:55.423Z,7.67
2022-10-29T16:11:23.158Z,7.93
2022-10-29T16:13:54.679Z,8.03
2022-10-29T16:16:23.936Z,8.43
2022-10-29T16:18:51.501Z,8.20
2022-10-29T16:21:23.309Z,10.20
2022-10-29T16:23:51.418Z,8.20
2022-10-29T16:26:21.157Z,9.23
2022-10-29T16:28:48.144Z,9.10
2022-10-29T16:31:42.749Z,8.40
2022-10-29T16:34:13.527Z,9.37
2022-10-29T16:36:40.335Z,8.70
2022-10-29T16:39:07.069Z,10.70
2022-10-29T16:41:34.768Z,9.70
2022-10-29T16:44:01.507Z,9.20
2022-10-29T16:46:28.272Z,9.73
2022-10-29T16:48:55.232Z,9.60
2022-10-29T16:51:21.999Z,9.07
2022-10-29T16:53:48.754Z,9.47
2022-10-29T16:56:15.487Z,9.43
2022-10-29T16:58:44.812Z,9.77
2022-10-29T17:01:11.641Z,9.93
2022-10-29T17:03:41.260Z,11.20
2022-10-29T17:06:10.097Z,10.70
2022-10-29T17:08:37.971Z,9.20
2022-10-29T17:11:06.696Z,9.50
2022-10-29T17:13:34.684Z,10.77
2022-10-29T17:16:05.568Z,11.10
2022-10-29T17:18:32.978Z,10.20
2022-10-29T17:21:01.232Z,12.13
2022-10-29T17:23:29.277Z,10.30
2022-10-29T17:25:57.590Z,10.60
2022-10-29T17:28:25.710Z,10.10
2022-10-29T17:30:52.573Z,10.13
2022-10-29T17:33:19.943Z,9.90
2022-10-29T17:35:46.673Z,10.13
2022-10-29T17:38:13.497Z,9.10
2022-10-29T17:40:42.625Z,9.23
2022-10-29T17:43:09.366Z,10.40
2022-10-29T17:45:37.053Z,9.50
2022-10-29T17:48:04.001Z,9.87
2022-10-29T17:50:30.757Z,11.80
2022-10-29T17:53:00.364Z,9.10
2022-10-29T17:55:27.214Z,9.87
2022-10-29T17:57:54.180Z,11.00
2022-10-29T18:00:21.188Z,11.90
2022-10-29T18:02:51.496Z,11.30
2022-10-29T18:05:18.935Z,11.80
2022-10-29T18:07:45.759Z,11.37
2022-10-29T18:10:12.591Z,12.23
2022-10-29T18:12:39.423Z,11.70
2022-10-29T18:15:06.627Z,11.00
2022-10-29T18:17:33.528Z,11.10
2022-10-29T18:20:00.316Z,13.03
2022-10-29T18:22:27.056Z,12.63
2022-10-29T18:24:53.927Z,11.70
2022-10-29T18:27:20.737Z,12.13
2022-10-29T18:29:47.705Z,12.23
2022-10-29T18:32:14.443Z,14.67
2022-10-29T18:34:41.375Z,13.57
2022-10-29T18:37:08.380Z,14.20
2022-10-29T18:39:35.256Z,12.90
2022-10-29T18:42:02.097Z,14.50
2022-10-29T18:44:28.869Z,12.40
2022-10-29T18:46:55.637Z,11.77
2022-10-29T18:49:22.691Z,12.27
2022-10-29T18:51:49.473Z,14.33
2022-10-29T18:54:16.640Z,15.90
2022-10-29T18:56:43.508Z,16.73
2022-10-29T18:59:11.542Z,14.90
2022-10-29T19:01:38.788Z,13.83
2022-10-29T19:04:08.400Z,12.57
2022-10-29T19:06:37.153Z,12.43
2022-10-29T19:09:07.150Z,13.23
2022-10-29T19:11:34.126Z,11.73
2022-10-29T19:14:03.688Z,10.47
2022-10-29T19:16:32.101Z,10.80
2022-10-29T19:19:11.428Z,11.70
2022-10-29T19:21:38.985Z,12.33
2022-10-29T19:24:07.107Z,12.67
2022-10-29T19:26:35.543Z,12.47
2022-10-29T19:29:04.024Z,12.77
2022-10-29T19:31:32.123Z,11.33
2022-10-29T19:34:02.541Z,12.60
2022-10-29T19:36:30.205Z,13.13
2022-10-29T19:38:57.303Z,13.10
2022-10-29T19:41:24.680Z,13.70
2022-10-29T19:43:51.830Z,12.63
2022-10-29T19:46:24.266Z,12.90
2022-10-29T19:48:53.488Z,13.10
2022-10-29T19:51:20.907Z,13.20
2022-10-29T19:53:48.186Z,19.97
2022-10-29T19:56:16.447Z,17.40
2022-10-29T19:58:43.851Z,17.50
2022-10-29T20:01:18.575Z,19.30
2022-10-29T20:03:46.923Z,15.73
2022-10-29T20:06:14.429Z,15.90
2022-10-29T20:08:41.245Z,18.70
2022-10-29T20:11:08.190Z,17.30
2022-10-29T20:13:35.422Z,18.60
2022-10-29T20:16:12.091Z,16.87
2022-10-29T20:18:39.277Z,17.07
2022-10-29T20:23:38.527Z,17.50
2022-10-29T20:26:05.907Z,16.93
2022-10-29T20:28:33.277Z,16.27
2022-10-29T20:31:18.255Z,15.90
2022-10-29T20:34:05.229Z,16.10
2022-10-29T20:36:32.670Z,16.23
2022-10-29T20:38:59.731Z,16.23
2022-10-29T20:41:27.454Z,15.70
2022-10-29T20:43:56.256Z,16.83
2022-10-29T20:46:24.451Z,17.20
2022-10-29T20:48:51.215Z,18.07
2022-10-29T20:51:18.238Z,18.33
2022-10-29T20:53:45.261Z,16.70
2022-10-29T20:56:15.920Z,18.07
2022-10-29T20:58:43.457Z,17.90
2022-10-29T21:01:13.460Z,17.50
2022-10-29T21:03:40.626Z,19.30
2022-10-29T21:06:13.963Z,18.80
2022-10-29T21:08:42.621Z,18.53
2022-10-29T21:11:12.106Z,17.63
2022-10-29T21:13:39.295Z,17.73
2022-10-29T21:16:18.133Z,18.33
2022-10-29T21:18:47.569Z,15.63
2022-10-29T21:21:15.159Z,21.10
2022-10-29T21:23:42.198Z,19.27
2022-10-29T21:26:17.852Z,18.40
2022-10-29T21:28:45.331Z,16.83
2022-10-29T21:31:12.271Z,19.03
2022-10-29T21:33:39.119Z,19.00
2022-10-29T21:36:06.053Z,18.23
2022-10-29T21:38:33.558Z,19.20
2022-10-29T21:41:02.146Z,17.63
2022-10-29T21:43:29.552Z,18.23
2022-10-29T21:45:56.417Z,18.27
2022-10-29T21:48:26.827Z,18.27
2022-10-29T21:51:02.079Z,18.30
2022-10-29T21:53:29.936Z,17.53
2022-10-29T21:55:57.839Z,17.43
2022-10-29T21:58:24.740Z,19.17
2022-10-29T22:00:51.571Z,19.83
2022-10-29T22:03:18.782Z,19.20
2022-10-29T22:05:45.567Z,18.00
2022-10-29T22:08:12.465Z,19.53
2022-10-29T22:10:39.249Z,20.00
2022-10-29T22:13:07.969Z,18.80
2022-10-29T22:15:37.649Z,19.73
2022-10-29T22:18:04.885Z,19.33
2022-10-29T22:20:32.038Z,18.77
2022-10-29T22:22:59.189Z,19.90
2022-10-29T22:25:26.696Z,18.70
2022-10-29T22:27:53.549Z,18.20
2022-10-29T22:30:20.298Z,17.27
2022-10-29T22:32:47.087Z,17.40
2022-10-29T22:35:13.913Z,18.57
2022-10-29T22:37:40.683Z,17.63
2022-10-29T22:40:08.344Z,18.77
2022-10-29T22:42:35.501Z,18.43
2022-10-29T22:45:02.664Z,17.80
2022-10-29T22:47:29.396Z,17.80
2022-10-29T22:49:59.307Z,18.43
2022-10-29T22:52:26.521Z,17.20
2022-10-29T22:54:53.647Z,16.43
2022-10-29T22:57:20.369Z,17.03
2022-10-29T22:59:47.607Z,18.80
2022-10-29T23:02:14.452Z,18.37
2022-10-29T23:04:41.668Z,16.17
2022-10-29T23:07:08.421Z,17.87
2022-10-29T23:09:35.207Z,16.30
2022-10-29T23:12:01.967Z,16.23
2022-10-29T23:14:28.711Z,16.23
2022-10-29T23:16:55.932Z,16.00
2022-10-29T23:19:23.064Z,15.67
2022-10-29T23:21:49.797Z,15.00
2022-10-29T23:24:16.949Z,16.67
2022-10-29T23:26:44.079Z,16.70
2022-10-29T23:29:10.873Z,20.90
2022-10-29T23:31:37.617Z,16.40
2022-10-29T23:34:04.784Z,15.80
2022-10-29T23:36:31.928Z,17.70
2022-10-29T23:39:00.264Z,14.73
2022-10-29T23:41:28.208Z,14.67
2022-10-29T23:43:55.359Z,15.70
2022-10-29T23:46:22.304Z,16.47
2022-10-29T23:48:49.431Z,15.40
2022-10-29T23:51:16.212Z,15.90
2022-10-29T23:53:42.961Z,14.60
2022-10-29T23:56:09.921Z,14.50
2022-10-29T23:58:36.707Z,15.50
